Time;durP1;ratioP1;P1;durP2;ratioP2;P2;SDS_P1;SDS_P2;PMS_P1;PMS_P2;Temp;Humidity;BMP_temperature;BMP_pressure;BME280_temperature;BME280_humidity;BME280_pressure;Samples;Min_cycle;Max_cycle;Signal;HPM_P1;HPM_P2
2022/03/18 00:00:39;;;;;;;;;;;2.10;99.90;;;0.20;100.00;103421.63;2566226;30;138381;-41
2022/03/18 00:03:07;;;;;;;;;;;2.00;99.90;;;0.21;100.00;103421.56;2568984;30;138205;-41
2022/03/18 00:05:35;;;;;;;;;;;2.00;99.90;;;0.22;100.00;103419.72;2568596;30;137429;-40
2022/03/18 00:08:04;;;;;;;;;;;2.00;99.90;;;0.16;100.00;103422.75;2569138;30;138242;-40
2022/03/18 00:10:31;;;;;;;;;;;1.90;99.90;;;0.02;100.00;103401.97;2568677;30;137046;-41
2022/03/18 00:12:59;;;;;;;;;;;1.90;99.90;;;0.03;100.00;103423.38;2567969;30;138305;-41
2022/03/18 00:15:27;;;;;;;;;;;1.90;99.90;;;-0.01;100.00;103421.78;2568845;30;136981;-40
2022/03/18 00:17:55;;;;;;;;;;;1.80;99.90;;;-0.05;100.00;103426.47;2569407;30;138270;-41
2022/03/18 00:20:23;;;;;;;;;;;1.80;99.90;;;-0.06;100.00;103429.22;2567639;30;136949;-40
2022/03/18 00:22:52;;;;;;;;;;;1.80;99.90;;;-0.12;100.00;103410.75;2568648;30;137391;-40
2022/03/18 00:25:20;;;;;;;;;;;1.80;99.90;;;-0.09;100.00;103432.06;2566789;30;137230;-41
2022/03/18 00:27:48;;;;;;;;;;;1.70;99.90;;;-0.12;100.00;103426.84;2568081;30;138247;-41
2022/03/18 00:30:17;;;;;;;;;;;1.70;99.90;;;-0.15;100.00;103434.09;2566634;30;137184;-41
2022/03/18 00:32:46;;;;;;;;;;;1.70;99.90;;;-0.21;100.00;103426.38;2568298;30;138465;-41
2022/03/18 00:35:34;;;;;;;;;;;1.60;99.90;;;-0.24;100.00;103421.16;2569097;30;136865;-41
2022/03/18 00:38:02;;;;;;;;;;;1.60;99.90;;;-0.26;100.00;103425.75;2568222;30;139044;-40
2022/03/18 00:40:31;;;;;;;;;;;1.60;99.90;;;-0.29;100.00;103428.56;2565771;30;136994;-41
2022/03/18 00:43:00;;;;;;;;;;;1.60;99.90;;;-0.35;100.00;103427.06;2568053;30;138239;-40
2022/03/18 00:45:29;;;;;;;;;;;1.50;99.90;;;-0.38;100.00;103429.91;2568315;30;137747;-41
2022/03/18 00:53:29;;;;;;;;;;;1.50;99.90;;;-0.37;100.00;103439.69;2568868;30;138170;-41
2022/03/18 00:55:57;;;;;;;;;;;1.40;99.90;;;-0.42;100.00;103441.69;2567684;30;137044;-41
2022/03/18 00:58:24;;;;;;;;;;;1.40;99.90;;;-0.47;100.00;103444.63;2568369;30;138302;-41
2022/03/18 01:00:52;;;;;;;;;;;1.40;99.90;;;-0.48;100.00;103448.25;2564965;30;138164;-41
2022/03/18 01:03:19;;;;;;;;;;;1.40;99.90;;;-0.48;100.00;103452.75;2568499;30;138355;-41
2022/03/18 01:05:47;;;;;;;;;;;1.40;99.90;;;-0.50;100.00;103455.50;2568662;30;137058;-41
2022/03/18 01:08:14;;;;;;;;;;;1.30;99.90;;;-0.54;100.00;103453.91;2567387;30;138667;-40
2022/03/18 01:10:42;;;;;;;;;;;1.30;99.90;;;-0.59;100.00;103459.50;2566822;30;138047;-41
2022/03/18 01:13:09;;;;;;;;;;;1.30;99.90;;;-0.62;100.00;103456.09;2568341;30;137976;-41
2022/03/18 01:15:39;;;;;;;;;;;1.20;99.90;;;-0.63;100.00;103457.94;2568068;30;137263;-41
2022/03/18 01:18:07;;;;;;;;;;;1.20;99.90;;;-0.71;100.00;103448.50;2566822;30;137823;-41
2022/03/18 01:20:34;;;;;;;;;;;1.20;99.90;;;-0.68;100.00;103459.06;2568055;30;138027;-40
2022/03/18 01:23:06;;;;;;;;;;;1.20;99.90;;;-0.72;100.00;103461.03;2566748;30;138335;-41
2022/03/18 01:25:34;;;;;;;;;;;1.10;99.90;;;-0.75;100.00;103461.19;2568603;30;136902;-41
2022/03/18 01:28:02;;;;;;;;;;;1.10;99.90;;;-0.75;100.00;103461.19;2568206;30;138100;-40
2022/03/18 01:33:05;;;;;;;;;;;1.10;99.90;;;-0.84;100.00;103467.84;2571038;30;137265;-39
2022/03/18 01:35:33;;;;;;;;;;;1.00;99.90;;;-0.87;100.00;103457.25;2570081;30;137588;-43
2022/03/18 01:38:00;;;;;;;;;;;1.00;99.90;;;-0.83;100.00;103466.91;2570656;30;139165;-39
2022/03/18 01:40:27;;;;;;;;;;;1.00;99.90;;;-0.83;100.00;103458.84;2568667;30;137093;-40
2022/03/18 01:42:55;;;;;;;;;;;1.00;99.90;;;-0.87;100.00;103457.25;2569780;30;139129;-40
2022/03/18 01:45:26;;;;;;;;;;;1.00;99.90;;;-0.91;100.00;103461.03;2566981;30;136983;-39
2022/03/18 01:47:54;;;;;;;;;;;1.00;99.90;;;-0.89;100.00;103470.75;2569411;30;138405;-40
2022/03/18 01:50:22;;;;;;;;;;;1.00;99.90;;;-0.90;100.00;103477.06;2568138;30;137621;-41
2022/03/18 01:52:50;;;;;;;;;;;1.00;99.90;;;-0.94;100.00;103470.06;2569984;30;138878;-43
2022/03/18 01:55:21;;;;;;;;;;;0.90;99.90;;;-0.96;100.00;103474.63;2571591;30;137412;-40
2022/03/18 01:57:48;;;;;;;;;;;0.90;99.90;;;-1.02;100.00;103477.63;2569270;30;138889;-40
2022/03/18 02:00:18;;;;;;;;;;;0.90;99.90;;;-1.05;100.00;103477.75;2570366;30;137172;-39
2022/03/18 02:02:46;;;;;;;;;;;0.80;99.90;;;-1.06;100.00;103484.06;2568413;30;138220;-39
2022/03/18 02:05:14;;;;;;;;;;;0.80;99.90;;;-1.10;100.00;103477.97;2570307;30;137039;-43
2022/03/18 02:07:44;;;;;;;;;;;0.80;99.90;;;-1.17;100.00;103471.16;2572597;30;139838;-41
2022/03/18 02:10:12;;;;;;;;;;;0.80;99.90;;;-1.17;100.00;103476.50;2570441;30;137247;-39
2022/03/18 02:12:41;;;;;;;;;;;0.80;99.90;;;-1.12;100.00;103489.72;2571982;30;137272;-39
2022/03/18 02:15:09;;;;;;;;;;;0.70;99.90;;;-1.16;100.00;103495.22;2570101;30;137186;-39
2022/03/18 02:17:39;;;;;;;;;;;0.70;99.90;;;-1.17;100.00;103503.31;2570822;30;138238;-41
2022/03/18 02:20:08;;;;;;;;;;;0.70;99.90;;;-1.18;100.00;103507.81;2570227;30;136962;-41
2022/03/18 02:22:38;;;;;;;;;;;0.70;99.90;;;-1.18;100.00;103507.81;2570897;30;137581;-39
2022/03/18 02:25:09;;;;;;;;;;;0.70;99.90;;;-1.21;100.00;103515.09;2570508;30;136694;-40
2022/03/18 02:27:37;;;;;;;;;;;0.70;99.90;;;-1.25;100.00;103521.53;2570974;30;139160;-39
2022/03/18 02:30:06;;;;;;;;;;;0.60;99.90;;;-1.31;100.00;103525.34;2569984;30;137344;-39
2022/03/18 02:32:36;;;;;;;;;;;0.60;99.90;;;-1.37;100.00;103521.13;2570931;30;138245;-40
2022/03/18 02:35:03;;;;;;;;;;;0.50;99.90;;;-1.46;100.00;103513.50;2571606;30;137475;-39
2022/03/18 02:37:31;;;;;;;;;;;0.50;99.90;;;-1.41;100.00;103526.72;2569472;30;138224;-40
2022/03/18 02:39:59;;;;;;;;;;;0.50;99.90;;;-1.38;100.00;103527.41;2570195;30;137727;-40
2022/03/18 02:42:26;;;;;;;;;;;0.50;99.90;;;-1.40;100.00;103529.31;2569498;30;139129;-41
2022/03/18 02:44:54;;;;;;;;;;;0.50;99.90;;;-1.39;100.00;103524.81;2571319;30;136999;-40
2022/03/18 02:47:21;;;;;;;;;;;0.50;99.90;;;-1.40;100.00;103529.31;2570116;30;138299;-39
2022/03/18 02:49:48;;;;;;;;;;;0.50;99.90;;;-1.43;100.00;103529.44;2569113;30;137177;-40
2022/03/18 02:52:16;;;;;;;;;;;0.50;99.90;;;-1.46;100.00;103526.91;2570026;30;137524;-40
2022/03/18 02:54:43;;;;;;;;;;;0.40;99.90;;;-1.47;100.00;103528.69;2570132;30;137418;-39
2022/03/18 02:57:11;;;;;;;;;;;0.40;99.90;;;-1.48;100.00;103531.44;2570663;30;138417;-43
2022/03/18 02:59:38;;;;;;;;;;;0.40;99.90;;;-1.52;100.00;103536.06;2569453;30;138028;-40
2022/03/18 03:02:06;;;;;;;;;;;0.40;99.90;;;-1.51;100.00;103537.81;2569794;30;138318;-39
2022/03/18 03:04:33;;;;;;;;;;;0.40;99.90;;;-1.52;100.00;103536.06;2566537;30;137542;-39
2022/03/18 03:09:46;;;;;;;;;;;0.40;99.90;;;-1.56;100.00;103534.44;2571818;30;137889;-39
2022/03/18 03:12:14;;;;;;;;;;;0.30;99.90;;;-1.58;100.00;103540.84;2565469;30;138904;-39
2022/03/18 03:14:41;;;;;;;;;;;0.30;99.90;;;-1.62;100.00;103545.44;2570261;30;137272;-40
2022/03/18 03:17:09;;;;;;;;;;;0.30;99.90;;;-1.65;100.00;103548.25;2569314;30;137618;-39
2022/03/18 03:19:36;;;;;;;;;;;0.30;99.90;;;-1.71;100.00;103545.84;2571916;30;137196;-39
2022/03/18 03:22:04;;;;;;;;;;;0.20;99.90;;;-1.71;100.00;103546.69;2572230;30;137170;-41
2022/03/18 03:24:32;;;;;;;;;;;0.20;99.90;;;-1.79;100.00;103555.03;2570230;30;137060;-40
2022/03/18 03:26:59;;;;;;;;;;;0.10;99.90;;;-1.79;100.00;103555.03;2569860;30;138442;-39
2022/03/18 03:29:27;;;;;;;;;;;0.10;99.90;;;-1.78;100.00;103559.44;2571237;30;137015;-39
2022/03/18 03:31:54;;;;;;;;;;;0.10;99.90;;;-1.76;100.00;103556.72;2569077;30;138374;-39
2022/03/18 03:34:21;;;;;;;;;;;0.10;99.90;;;-1.78;100.00;103562.13;2569956;30;137046;-39
2022/03/18 03:36:49;;;;;;;;;;;0.10;99.90;;;-1.82;100.00;103560.53;2569639;30;138264;-39
2022/03/18 03:39:17;;;;;;;;;;;0.10;99.90;;;-1.89;100.00;103562.56;2569169;30;137847;-39
2022/03/18 03:41:45;;;;;;;;;;;0.10;99.90;;;-1.87;100.00;103567.88;2570376;30;138199;-40
2022/03/18 03:44:12;;;;;;;;;;;0.00;99.90;;;-1.92;100.00;103556.50;2570434;30;136894;-40
2022/03/18 03:46:40;;;;;;;;;;;0.00;99.90;;;-1.97;100.00;103555.81;2566778;30;138762;-39
2022/03/18 03:49:07;;;;;;;;;;;-0.10;99.90;;;-1.98;100.00;103565.63;2568944;30;137236;-41
2022/03/18 03:51:35;;;;;;;;;;;-0.10;99.90;;;-2.01;100.00;103565.75;2568382;30;138420;-39
2022/03/18 03:54:02;;;;;;;;;;;-0.10;99.90;;;-1.98;100.00;103573.66;2568136;30;137437;-40
2022/03/18 03:56:30;;;;;;;;;;;-0.10;99.90;;;-2.00;100.00;103567.50;2569378;30;139403;-39
2022/03/18 03:58:57;;;;;;;;;;;-0.10;99.90;;;-2.06;100.00;103563.25;2569811;30;137096;-39
2022/03/18 04:01:26;;;;;;;;;;;-0.20;99.90;;;-2.10;100.00;103567.00;2569189;30;138059;-40
2022/03/18 04:03:54;;;;;;;;;;;-0.20;99.90;;;-2.15;100.00;103573.47;2569922;30;137210;-42
2022/03/18 04:06:22;;;;;;;;;;;-0.20;99.90;;;-2.20;100.00;103569.16;2569295;30;139255;-39
2022/03/18 04:08:49;;;;;;;;;;;-0.30;99.90;;;-2.14;100.00;103567.16;2569626;30;136677;-39
2022/03/18 04:11:17;;;;;;;;;;;-0.20;99.90;;;-2.19;100.00;103580.75;2571733;30;138292;-39
2022/03/18 04:13:44;;;;;;;;;;;-0.30;99.90;;;-2.21;100.00;103583.47;2570264;30;137904;-41
2022/03/18 04:16:11;;;;;;;;;;;-0.30;99.90;;;-2.22;100.00;103580.88;2569615;30;138259;-39
2022/03/18 04:18:39;;;;;;;;;;;-0.30;99.90;;;-2.28;100.00;103581.97;2569159;30;136717;-39
2022/03/18 04:21:06;;;;;;;;;;;-0.30;99.90;;;-2.31;100.00;103596.34;2569213;30;139473;-41
2022/03/18 04:23:34;;;;;;;;;;;-0.40;99.90;;;-2.34;100.00;103595.59;2569113;30;137069;-39
2022/03/18 04:26:01;;;;;;;;;;;-0.40;99.90;;;-2.38;100.00;103604.69;2571705;30;138279;-39
2022/03/18 04:28:28;;;;;;;;;;;-0.40;99.90;;;-2.38;100.00;103604.69;2568800;30;137551;-39
2022/03/18 04:30:56;;;;;;;;;;;-0.50;99.90;;;-2.41;100.00;103600.31;2569888;30;139360;-39
2022/03/18 04:33:23;;;;;;;;;;;-0.50;99.90;;;-2.39;100.00;103597.56;2568739;30;136932;-40
2022/03/18 04:35:51;;;;;;;;;;;-0.50;99.90;;;-2.46;100.00;103597.78;2568913;30;138236;-40
2022/03/18 04:38:18;;;;;;;;;;;-0.50;99.90;;;-2.51;100.00;103602.44;2568950;30;137122;-39
2022/03/18 04:40:46;;;;;;;;;;;-0.50;99.90;;;-2.51;100.00;103602.44;2571803;30;138265;-40
2022/03/18 04:43:13;;;;;;;;;;;-0.60;99.90;;;-2.53;100.00;103598.97;2567812;30;137099;-40
2022/03/18 04:45:40;;;;;;;;;;;-0.60;99.90;;;-2.56;100.00;103603.53;2568338;30;139259;-40
2022/03/18 04:48:08;;;;;;;;;;;-0.60;99.90;;;-2.54;100.00;103605.25;2569563;30;136983;-43
2022/03/18 04:50:35;;;;;;;;;;;-0.60;99.90;;;-2.56;100.00;103607.09;2570231;30;139219;-39
2022/03/18 04:53:02;;;;;;;;;;;-0.60;99.90;;;-2.65;100.00;103602.13;2569516;30;137227;-39
2022/03/18 04:55:30;;;;;;;;;;;-0.70;99.90;;;-2.63;100.00;103617.16;2570135;30;138297;-39
2022/03/18 04:57:57;;;;;;;;;;;-0.70;99.90;;;-2.64;100.00;103628.78;2570886;30;137850;-39
2022/03/18 05:00:25;;;;;;;;;;;-0.70;99.90;;;-2.67;100.00;103630.69;2568297;30;139492;-39
2022/03/18 05:02:53;;;;;;;;;;;-0.70;99.90;;;-2.67;100.00;103641.38;2570233;30;136819;-39
2022/03/18 05:05:20;;;;;;;;;;;-0.70;99.90;;;-2.67;100.00;103639.59;2567533;30;138456;-39
2022/03/18 05:07:53;;;;;;;;;;;-0.80;99.90;;;-2.87;100.00;103615.38;2568439;30;137747;-41
2022/03/18 05:10:22;;;;;;;;;;;-0.80;99.90;;;-2.80;100.00;103641.84;2571937;30;137392;-41
2022/03/18 05:12:50;;;;;;;;;;;-0.80;99.90;;;-2.77;100.00;103652.41;2568459;30;138380;-39
2022/03/18 05:15:17;;;;;;;;;;;-0.80;99.90;;;-2.76;100.00;103656.81;2569546;30;139210;-40
2022/03/18 05:17:51;;;;;;;;;;;-0.80;99.90;;;-2.72;100.00;103657.59;2569805;30;137228;-39
2022/03/18 05:20:18;;;;;;;;;;;-0.80;99.90;;;-2.75;100.00;103663.06;2567896;30;137811;-40
2022/03/18 05:22:46;;;;;;;;;;;-0.80;99.90;;;-2.77;100.00;103667.59;2571915;30;136978;-40
2022/03/18 05:25:14;;;;;;;;;;;-0.80;99.90;;;-2.81;100.00;103665.91;2570057;30;139143;-41
2022/03/18 05:27:43;;;;;;;;;;;-0.90;99.90;;;-2.82;100.00;103681.09;2570911;30;136774;-40
2022/03/18 05:30:14;;;;;;;;;;;-0.80;99.90;;;-2.80;100.00;103678.34;2572195;30;138265;-39
2022/03/18 05:32:43;;;;;;;;;;;-0.90;99.90;;;-2.78;100.00;103689.91;2569365;30;137950;-39
2022/03/18 05:35:11;;;;;;;;;;;-0.80;99.90;;;-2.79;100.00;103689.00;2572476;30;138953;-40
2022/03/18 05:37:39;;;;;;;;;;;-0.90;99.90;;;-2.73;100.00;103687.03;2567702;30;137121;-42
2022/03/18 05:40:08;;;;;;;;;;;-0.80;99.90;;;-2.75;100.00;103693.31;2570587;30;137104;-42
2022/03/18 05:42:35;;;;;;;;;;;-0.80;99.90;;;-2.72;100.00;103697.69;2570055;30;139718;-40
2022/03/18 05:45:03;;;;;;;;;;;-0.80;99.90;;;-2.77;100.00;103705.00;2568905;30;138678;-40
2022/03/18 05:47:31;;;;;;;;;;;-0.80;99.90;;;-2.78;100.00;103712.13;2569359;30;138293;-44
2022/03/18 05:50:03;;;;;;;;;;;-0.80;99.90;;;-2.78;100.00;103709.47;2571390;30;139128;-41
2022/03/18 05:52:32;;;;;;;;;;;-0.80;99.90;;;-2.77;100.00;103711.22;2570303;30;137743;-40
2022/03/18 05:55:01;;;;;;;;;;;-0.80;99.90;;;-2.77;100.00;103718.38;2569788;30;139346;-40
2022/03/18 05:57:29;;;;;;;;;;;-0.90;99.90;;;-2.80;100.00;103730.03;2571539;30;137912;-39
2022/03/18 05:59:58;;;;;;;;;;;-0.90;99.90;;;-2.78;100.00;103722.81;2567784;30;138750;-39
2022/03/18 06:02:25;;;;;;;;;;;-0.90;99.90;;;-2.77;100.00;103711.22;2569618;30;137902;-40
2022/03/18 06:04:53;;;;;;;;;;;-0.80;99.90;;;-2.73;100.00;103713.75;2571764;30;138305;-39
2022/03/18 06:07:21;;;;;;;;;;;-0.80;99.90;;;-2.77;100.00;103716.56;2570163;30;137275;-39
2022/03/18 06:12:34;;;;;;;;;;;-0.90;99.90;;;-2.72;100.00;103739.56;2569708;30;137242;-40
2022/03/18 06:15:02;;;;;;;;;;;-0.80;99.90;;;-2.66;100.00;103747.38;2568971;30;138063;-40
2022/03/18 06:17:29;;;;;;;;;;;-0.80;99.90;;;-2.65;100.00;103741.13;2570965;30;136920;-39
2022/03/18 06:19:57;;;;;;;;;;;-0.70;99.90;;;-2.60;100.00;103749.84;2569057;30;137940;-39
2022/03/18 06:22:24;;;;;;;;;;;-0.70;99.90;;;-2.56;100.00;103751.47;2569217;30;137302;-45
2022/03/18 06:24:51;;;;;;;;;;;-0.70;99.90;;;-2.54;100.00;103746.94;2570952;30;138690;-39
2022/03/18 06:27:19;;;;;;;;;;;-0.70;99.90;;;-2.50;100.00;103745.91;2570831;30;137026;-39
2022/03/18 06:29:46;;;;;;;;;;;-0.60;99.90;;;-2.46;100.00;103734.19;2569819;30;138576;-39
2022/03/18 06:32:13;;;;;;;;;;;-0.60;99.90;;;-2.36;100.00;103744.56;2571762;30;137306;-39
2022/03/18 06:34:41;;;;;;;;;;;-0.60;99.90;;;-2.32;100.00;103744.38;2570193;30;137157;-43
2022/03/18 06:37:08;;;;;;;;;;;-0.50;99.90;;;-2.27;100.00;103743.31;2570452;30;137114;-39
2022/03/18 06:39:36;;;;;;;;;;;-0.40;99.90;;;-2.09;100.00;103760.53;2568657;30;139493;-39
2022/03/18 06:42:04;;;;;;;;;;;-0.40;99.90;;;-1.96;100.00;103766.28;2571944;30;137284;-39
2022/03/18 06:44:32;;;;;;;;;;;-0.20;99.90;;;-1.84;100.00;103775.66;2569107;30;138987;-39
2022/03/18 06:46:59;;;;;;;;;;;-0.10;99.90;;;-1.71;100.00;103781.44;2567868;30;137766;-39
2022/03/18 06:49:27;;;;;;;;;;;0.00;99.90;;;-1.61;100.00;103777.47;2571182;30;138969;-39
2022/03/18 06:51:54;;;;;;;;;;;0.10;99.90;;;-1.53;100.00;103782.53;2569179;30;137170;-40
2022/03/18 06:54:22;;;;;;;;;;;0.20;99.90;;;-1.45;100.00;103775.03;2571832;30;138374;-40
2022/03/18 06:56:49;;;;;;;;;;;0.30;99.90;;;-1.34;100.00;103779.97;2571587;30;137257;-39
2022/03/18 06:59:17;;;;;;;;;;;0.40;99.90;;;-1.17;100.00;103781.97;2568318;30;138980;-40
2022/03/18 07:01:44;;;;;;;;;;;0.50;99.90;;;-1.02;100.00;103780.47;2570060;30;137003;-40
2022/03/18 07:04:12;;;;;;;;;;;0.60;99.90;;;-0.92;100.00;103781.84;2567309;30;137499;-40
2022/03/18 07:06:40;;;;;;;;;;;0.70;99.90;;;-0.69;100.00;103782.66;2569852;30;137177;-39
2022/03/18 07:09:08;;;;;;;;;;;0.90;99.90;;;-0.51;100.00;103785.50;2569648;30;139389;-40
2022/03/18 07:11:35;;;;;;;;;;;1.10;99.90;;;-0.27;100.00;103788.91;2568670;30;137697;-40
2022/03/18 07:14:03;;;;;;;;;;;1.30;99.90;;;-0.08;100.00;103783.63;2571380;30;138997;-42
2022/03/18 07:19:16;;;;;;;;;;;1.60;99.90;;;0.50;100.00;103784.53;2569827;30;139126;-40
2022/03/18 07:21:44;;;;;;;;;;;1.90;99.90;;;0.79;100.00;103776.00;2569205;30;137006;-41
2022/03/18 07:24:11;;;;;;;;;;;2.30;99.90;;;1.08;100.00;103774.56;2569417;30;139141;-40
2022/03/18 07:26:39;;;;;;;;;;;2.50;99.90;;;1.24;100.00;103771.97;2570567;30;137684;-40
2022/03/18 07:29:06;;;;;;;;;;;2.70;99.90;;;1.55;100.00;103777.59;2572420;30;139150;-40
2022/03/18 07:31:33;;;;;;;;;;;2.90;99.90;;;1.72;100.00;103774.88;2596057;30;138661;-41
2022/03/18 07:34:01;;;;;;;;;;;3.20;99.90;;;1.88;100.00;103779.44;2568572;30;137280;-41
2022/03/18 07:36:29;;;;;;;;;;;3.30;99.90;;;2.08;100.00;103791.81;2568153;30;137300;-41
2022/03/18 07:38:56;;;;;;;;;;;3.50;99.90;;;2.27;100.00;103794.41;2568938;30;138234;-41
2022/03/18 07:41:24;;;;;;;;;;;3.60;99.90;;;2.41;100.00;103782.84;2565910;30;137272;-41
2022/03/18 07:43:51;;;;;;;;;;;3.80;99.90;;;2.61;100.00;103788.06;2567340;30;137544;-41
2022/03/18 07:46:18;;;;;;;;;;;4.00;99.90;;;2.78;100.00;103784.41;2568631;30;137243;-41
2022/03/18 07:48:46;;;;;;;;;;;4.10;99.90;;;2.91;100.00;103781.88;2566746;30;139056;-41
2022/03/18 07:51:14;;;;;;;;;;;4.30;99.90;;;3.14;100.00;103784.09;2567662;30;137085;-41
2022/03/18 07:53:41;;;;;;;;;;;4.50;99.90;;;3.31;100.00;103783.09;2565685;30;137520;-41
2022/03/18 07:56:08;;;;;;;;;;;4.60;99.90;;;3.48;100.00;103778.53;2567736;30;137944;-41
2022/03/18 07:58:36;;;;;;;;;;;4.80;99.90;;;3.66;100.00;103781.03;2567878;30;138283;-41
2022/03/18 08:01:07;;;;;;;;;;;5.00;99.90;;;3.86;100.00;103772.59;2568156;30;136843;-41
2022/03/18 08:03:35;;;;;;;;;;;5.20;99.90;;;4.08;100.00;103779.34;2567453;30;138136;-41
2022/03/18 08:06:03;;;;;;;;;;;5.40;99.90;;;4.31;100.00;103785.13;2569084;30;137035;-41
2022/03/18 08:08:33;;;;;;;;;;;5.60;99.90;;;4.50;100.00;103787.50;2569028;30;137988;-41
2022/03/18 08:11:01;;;;;;;;;;;5.80;99.90;;;4.63;100.00;103787.56;2568951;30;136775;-41
2022/03/18 08:13:29;;;;;;;;;;;6.00;99.90;;;4.80;99.40;103794.59;2567634;30;137732;-41
2022/03/18 08:15:57;;;;;;;;;;;6.20;99.90;;;4.99;96.64;103788.81;2568143;30;137076;-41
2022/03/18 08:18:24;;;;;;;;;;;6.40;99.90;;;5.17;95.69;103788.56;2567722;30;138509;-41
2022/03/18 08:20:53;;;;;;;;;;;6.50;99.90;;;5.29;94.75;103800.38;2568114;30;136826;-42
2022/03/18 08:23:22;;;;;;;;;;;6.60;99.90;;;5.43;94.18;103804.84;2567543;30;139209;-41
2022/03/18 08:25:50;;;;;;;;;;;6.80;99.90;;;5.59;92.86;103813.69;2568205;30;137071;-41
2022/03/18 08:28:17;;;;;;;;;;;6.90;99.90;;;5.71;91.89;103814.66;2569488;30;137556;-41
2022/03/18 08:30:44;;;;;;;;;;;7.10;99.90;;;5.85;91.42;103829.06;2568444;30;137044;-41
2022/03/18 08:33:12;;;;;;;;;;;7.20;99.90;;;6.01;89.34;103820.75;2567912;30;137370;-41
2022/03/18 08:35:41;;;;;;;;;;;7.40;99.90;;;6.15;88.91;103826.09;2568773;30;137356;-41
2022/03/18 08:38:09;;;;;;;;;;;7.50;99.90;;;6.32;88.88;103832.13;2569113;30;138245;-41
2022/03/18 08:40:38;;;;;;;;;;;7.60;99.90;;;6.51;88.33;103834.41;2567721;30;136999;-42
2022/03/18 08:43:09;;;;;;;;;;;7.80;99.90;;;6.69;86.61;103834.00;2568035;30;138400;-41
2022/03/18 08:45:37;;;;;;;;;;;8.00;99.90;;;6.87;87.71;103850.78;2569520;30;137013;-41
2022/03/18 08:48:05;;;;;;;;;;;8.10;99.90;;;6.97;84.36;103843.69;2568788;30;137267;-42
2022/03/18 08:50:32;;;;;;;;;;;8.30;99.90;;;7.12;79.49;103857.09;2568682;30;138034;-41
2022/03/18 08:53:00;;;;;;;;;;;8.40;99.90;;;7.20;78.67;103852.81;2567896;30;138473;-41
2022/03/18 08:55:27;;;;;;;;;;;8.60;99.90;;;7.33;79.35;103855.47;2566062;30;137193;-41
2022/03/18 08:57:55;;;;;;;;;;;8.70;99.90;;;7.51;78.37;103868.66;2568300;30;138442;-41
2022/03/18 09:00:22;;;;;;;;;;;8.80;99.90;;;7.60;75.46;103861.66;2569041;30;136769;-41
2022/03/18 09:02:50;;;;;;;;;;;8.90;99.90;;;7.69;73.87;103860.94;2565701;30;138373;-41
2022/03/18 09:05:18;;;;;;;;;;;9.00;99.90;;;7.81;76.64;103859.09;2568921;30;137219;-41
2022/03/18 09:07:46;;;;;;;;;;;9.10;99.90;;;7.89;73.70;103859.38;2569197;30;137111;-41
2022/03/18 09:10:13;;;;;;;;;;;9.20;99.90;;;7.98;74.10;103865.94;2568779;30;137080;-41
2022/03/18 09:12:56;;;;;;;;;;;9.30;99.90;;;8.09;71.76;103872.38;2568426;30;138148;-41
2022/03/18 09:15:24;;;;;;;;;;;9.40;99.90;;;8.15;71.81;103875.47;2568719;30;136649;-41
2022/03/18 09:17:51;;;;;;;;;;;9.50;99.90;;;8.27;71.15;103878.22;2566007;30;139399;-41
2022/03/18 09:20:19;;;;;;;;;;;9.60;99.90;;;8.24;68.99;103886.63;2568335;30;137388;-42
2022/03/18 09:22:46;;;;;;;;;;;9.70;99.90;;;8.36;68.69;103893.81;2567926;30;138093;-41
2022/03/18 09:25:14;;;;;;;;;;;9.80;99.90;;;8.44;69.38;103895.91;2567597;30;137216;-41
2022/03/18 09:27:41;;;;;;;;;;;9.80;99.90;;;8.54;70.23;103893.34;2567552;30;137450;-41
2022/03/18 09:30:11;;;;;;;;;;;9.90;99.90;;;8.68;68.61;103903.13;2569104;30;136709;-41
2022/03/18 09:32:42;;;;;;;;;;;10.00;99.90;;;8.63;67.95;103900.78;2567214;30;138214;-41
2022/03/18 09:35:14;;;;;;;;;;;10.00;99.90;;;8.76;66.13;103898.78;2568610;30;136968;-41
2022/03/18 09:37:42;;;;;;;;;;;10.10;99.00;;;8.81;69.00;103905.72;2567559;30;138274;-41
2022/03/18 09:40:11;;;;;;;;;;;10.20;99.90;;;8.94;68.77;103900.97;2568212;30;138096;-41
2022/03/18 09:43:02;;;;;;;;;;;10.30;99.90;;;9.13;64.38;103902.19;2568031;30;138537;-41
2022/03/18 09:45:33;;;;;;;;;;;10.40;98.10;;;9.17;63.02;103904.53;2568300;30;137421;-41
2022/03/18 09:48:03;;;;;;;;;;;10.50;96.70;;;9.09;62.25;103915.19;2568721;30;137471;-41
2022/03/18 09:50:30;;;;;;;;;;;10.60;95.70;;;9.18;65.03;103913.56;2567866;30;136958;-42
2022/03/18 09:52:58;;;;;;;;;;;10.50;97.70;;;9.34;65.71;103913.16;2567959;30;138342;-41
2022/03/18 09:55:26;;;;;;;;;;;10.70;98.60;;;9.34;63.90;103914.03;2566663;30;137840;-41
2022/03/18 09:57:53;;;;;;;;;;;10.70;97.00;;;9.40;63.08;103914.50;2566885;30;139421;-41
2022/03/18 10:00:25;;;;;;;;;;;10.70;96.30;;;9.53;63.69;103912.47;2567765;30;137268;-41
2022/03/18 10:03:07;;;;;;;;;;;10.80;96.80;;;9.71;66.13;103920.94;2567397;30;137451;-41
2022/03/18 10:05:46;;;;;;;;;;;10.90;98.60;;;9.85;64.83;103917.03;2568833;30;137161;-41
2022/03/18 10:08:14;;;;;;;;;;;11.10;99.10;;;9.83;63.32;103918.16;2567842;30;138501;-41
2022/03/18 10:10:49;;;;;;;;;;;11.20;96.70;;;9.82;64.10;103917.31;2567063;30;137848;-41
2022/03/18 10:13:16;;;;;;;;;;;11.20;97.00;;;9.92;65.63;103920.09;2568959;30;138260;-41
2022/03/18 10:15:44;;;;;;;;;;;11.20;98.00;;;10.06;64.44;103918.88;2568412;30;137932;-41
2022/03/18 10:18:13;;;;;;;;;;;11.30;97.90;;;10.24;62.84;103915.56;2568453;30;138572;-41
2022/03/18 10:20:43;;;;;;;;;;;11.50;96.60;;;10.25;62.38;103920.91;2568511;30;137108;-41
2022/03/18 10:23:16;;;;;;;;;;;11.60;96.20;;;10.22;61.09;103908.38;2568783;30;138187;-41
2022/03/18 10:25:52;;;;;;;;;;;11.60;94.00;;;10.21;60.27;103914.84;2568362;30;136856;-41
2022/03/18 10:28:37;;;;;;;;;;;11.60;94.20;;;10.18;60.14;103906.03;2567144;30;139174;-41
2022/03/18 10:31:21;;;;;;;;;;;11.60;93.80;;;10.25;60.82;103906.38;2568477;30;136670;-41
2022/03/18 10:39:32;;;;;;;;;;;11.70;93.10;;;10.44;57.81;103905.63;2568636;30;139237;-41
2022/03/18 10:42:03;;;;;;;;;;;11.80;92.00;;;10.64;58.56;103906.59;2568002;30;136810;-41
2022/03/18 10:44:48;;;;;;;;;;;11.90;92.90;;;10.64;57.13;103899.28;2567985;30;138467;-41
2022/03/18 10:47:41;;;;;;;;;;;11.90;91.60;;;10.78;57.40;103905.38;2568196;30;137173;-41
2022/03/18 10:50:12;;;;;;;;;;;12.10;91.70;;;10.83;56.23;103904.94;2567674;30;137748;-41
2022/03/18 10:52:45;;;;;;;;;;;12.20;91.30;;;10.88;57.73;103917.19;2568185;30;136825;-41
2022/03/18 10:55:20;;;;;;;;;;;12.20;92.00;;;10.96;56.23;103911.03;2567682;30;137751;-42
2022/03/18 10:57:52;;;;;;;;;;;12.30;90.80;;;11.05;56.54;103917.53;2568633;30;137308;-41
2022/03/18 11:00:22;;;;;;;;;;;12.30;91.70;;;11.07;52.48;103921.81;2569556;30;138281;-41
2022/03/18 11:02:52;;;;;;;;;;;12.40;86.00;;;11.04;49.72;103913.91;2568033;30;137412;-41
2022/03/18 11:05:21;;;;;;;;;;;12.40;82.00;;;11.07;52.94;103919.09;2567087;30;138901;-41
2022/03/18 11:07:51;;;;;;;;;;;12.40;85.70;;;11.14;53.15;103919.41;2569033;30;138005;-41
2022/03/18 11:13:07;;;;;;;;;;;12.50;85.50;;;11.19;50.43;103925.31;2568115;30;136863;-41
2022/03/18 11:15:39;;;;;;;;;;;12.60;82.60;;;11.28;51.40;103922.75;2568190;30;137219;-41
2022/03/18 11:18:10;;;;;;;;;;;12.60;83.80;;;11.32;50.28;103926.94;2567228;30;137722;-41
2022/03/18 11:20:43;;;;;;;;;;;12.70;81.80;;;11.37;49.25;103913.69;2568461;30;138957;-41
2022/03/18 11:23:22;;;;;;;;;;;12.70;80.30;;;11.47;50.44;103921.91;2567625;30;136952;-41
2022/03/18 11:25:59;;;;;;;;;;;12.80;80.90;;;11.47;49.35;103916.44;2568465;30;138436;-41
2022/03/18 11:28:27;;;;;;;;;;;12.80;79.50;;;11.57;50.91;103914.56;2568427;30;137118;-42
2022/03/18 11:31:03;;;;;;;;;;;12.90;81.80;;;11.71;52.41;103915.16;2567283;30;138291;-41
2022/03/18 11:33:31;;;;;;;;;;;13.00;85.10;;;11.83;50.79;103904.91;2566354;30;137563;-41